sensor_id;sensor_type;location;lat;lon;timestamp;P1;durP1;ratioP1;P2;durP2;ratioP2
18200;SDS011;9226;47.858;9.594;2024-01-30T00:01:37;24.23;;;10.10;;
18200;SDS011;9226;47.858;9.594;2024-01-30T00:04:03;23.83;;;9.50;;
18200;SDS011;9226;47.858;9.594;2024-01-30T00:06:28;25.07;;;9.77;;
18200;SDS011;9226;47.858;9.594;2024-01-30T00:08:54;21.57;;;9.73;;
18200;SDS011;9226;47.858;9.594;2024-01-30T00:11:19;21.60;;;8.73;;
18200;SDS011;9226;47.858;9.594;2024-01-30T00:13:46;20.90;;;8.97;;
18200;SDS011;9226;47.858;9.594;2024-01-30T00:16:20;21.40;;;9.53;;
18200;SDS011;9226;47.858;9.594;2024-01-30T00:18:47;23.90;;;8.70;;
18200;SDS011;9226;47.858;9.594;2024-01-30T00:21:13;22.27;;;9.43;;
18200;SDS011;9226;47.858;9.594;2024-01-30T00:23:38;23.70;;;9.37;;
18200;SDS011;9226;47.858;9.594;2024-01-30T00:26:03;21.57;;;9.07;;
18200;SDS011;9226;47.858;9.594;2024-01-30T00:28:30;20.67;;;8.63;;
18200;SDS011;9226;47.858;9.594;2024-01-30T00:30:55;20.33;;;9.03;;
18200;SDS011;9226;47.858;9.594;2024-01-30T00:33:21;19.50;;;8.67;;
18200;SDS011;9226;47.858;9.594;2024-01-30T00:35:47;24.10;;;8.67;;
18200;SDS011;9226;47.858;9.594;2024-01-30T00:38:12;24.17;;;8.97;;
18200;SDS011;9226;47.858;9.594;2024-01-30T00:40:37;16.10;;;7.63;;
18200;SDS011;9226;47.858;9.594;2024-01-30T00:43:03;19.60;;;8.43;;
18200;SDS011;9226;47.858;9.594;2024-01-30T00:45:28;19.43;;;8.57;;
18200;SDS011;9226;47.858;9.594;2024-01-30T00:47:54;19.60;;;8.33;;
18200;SDS011;9226;47.858;9.594;2024-01-30T00:50:19;20.13;;;8.87;;
18200;SDS011;9226;47.858;9.594;2024-01-30T00:52:44;19.60;;;7.93;;
18200;SDS011;9226;47.858;9.594;2024-01-30T00:55:10;18.63;;;7.07;;
18200;SDS011;9226;47.858;9.594;2024-01-30T00:57:36;624.67;;;38.27;;
18200;SDS011;9226;47.858;9.594;2024-01-30T01:00:02;583.03;;;38.97;;
18200;SDS011;9226;47.858;9.594;2024-01-30T01:02:28;476.53;;;33.53;;
18200;SDS011;9226;47.858;9.594;2024-01-30T01:04:53;84.97;;;10.63;;
18200;SDS011;9226;47.858;9.594;2024-01-30T01:07:19;240.17;;;18.17;;
18200;SDS011;9226;47.858;9.594;2024-01-30T01:09:45;153.87;;;12.97;;
18200;SDS011;9226;47.858;9.594;2024-01-30T01:12:10;135.17;;;12.40;;
18200;SDS011;9226;47.858;9.594;2024-01-30T01:14:35;309.57;;;20.10;;
18200;SDS011;9226;47.858;9.594;2024-01-30T01:17:01;516.50;;;32.37;;
18200;SDS011;9226;47.858;9.594;2024-01-30T01:19:27;503.10;;;34.00;;
18200;SDS011;9226;47.858;9.594;2024-01-30T01:21:52;371.53;;;27.00;;
18200;SDS011;9226;47.858;9.594;2024-01-30T01:24:18;370.83;;;21.23;;
18200;SDS011;9226;47.858;9.594;2024-01-30T01:26:43;253.03;;;19.00;;
18200;SDS011;9226;47.858;9.594;2024-01-30T01:29:09;249.40;;;20.40;;
18200;SDS011;9226;47.858;9.594;2024-01-30T01:31:36;341.63;;;22.50;;
18200;SDS011;9226;47.858;9.594;2024-01-30T01:34:08;165.97;;;15.37;;
18200;SDS011;9226;47.858;9.594;2024-01-30T01:36:37;250.90;;;18.30;;
18200;SDS011;9226;47.858;9.594;2024-01-30T01:39:03;74.17;;;10.67;;
18200;SDS011;9226;47.858;9.594;2024-01-30T01:41:30;15.90;;;7.03;;
18200;SDS011;9226;47.858;9.594;2024-01-30T01:43:56;16.27;;;7.00;;
18200;SDS011;9226;47.858;9.594;2024-01-30T01:46:22;19.87;;;7.07;;
18200;SDS011;9226;47.858;9.594;2024-01-30T01:48:48;19.27;;;7.77;;
18200;SDS011;9226;47.858;9.594;2024-01-30T01:51:14;14.97;;;6.93;;
18200;SDS011;9226;47.858;9.594;2024-01-30T01:53:40;29.53;;;7.17;;
18200;SDS011;9226;47.858;9.594;2024-01-30T01:56:06;19.53;;;6.70;;
18200;SDS011;9226;47.858;9.594;2024-01-30T01:58:32;29.13;;;7.93;;
18200;SDS011;9226;47.858;9.594;2024-01-30T02:00:57;14.50;;;5.87;;
18200;SDS011;9226;47.858;9.594;2024-01-30T02:03:24;13.57;;;6.63;;
18200;SDS011;9226;47.858;9.594;2024-01-30T02:05:52;13.67;;;6.53;;
18200;SDS011;9226;47.858;9.594;2024-01-30T02:08:19;14.90;;;6.93;;
18200;SDS011;9226;47.858;9.594;2024-01-30T02:10:44;15.20;;;7.47;;
18200;SDS011;9226;47.858;9.594;2024-01-30T02:13:10;15.27;;;6.73;;
18200;SDS011;9226;47.858;9.594;2024-01-30T02:15:35;14.87;;;7.10;;
18200;SDS011;9226;47.858;9.594;2024-01-30T02:18:01;16.63;;;6.83;;
18200;SDS011;9226;47.858;9.594;2024-01-30T02:20:26;13.73;;;6.67;;
18200;SDS011;9226;47.858;9.594;2024-01-30T02:22:55;12.13;;;6.47;;
18200;SDS011;9226;47.858;9.594;2024-01-30T02:25:36;15.63;;;7.33;;
18200;SDS011;9226;47.858;9.594;2024-01-30T02:28:09;22.37;;;7.27;;
18200;SDS011;9226;47.858;9.594;2024-01-30T02:30:34;181.50;;;15.50;;
18200;SDS011;9226;47.858;9.594;2024-01-30T02:33:00;34.53;;;8.70;;
18200;SDS011;9226;47.858;9.594;2024-01-30T02:35:25;110.23;;;12.00;;
18200;SDS011;9226;47.858;9.594;2024-01-30T02:37:51;180.57;;;10.83;;
18200;SDS011;9226;47.858;9.594;2024-01-30T02:40:16;222.57;;;14.47;;
18200;SDS011;9226;47.858;9.594;2024-01-30T02:42:42;130.47;;;11.17;;
18200;SDS011;9226;47.858;9.594;2024-01-30T02:45:09;132.10;;;10.97;;
18200;SDS011;9226;47.858;9.594;2024-01-30T02:47:35;121.60;;;12.30;;
18200;SDS011;9226;47.858;9.594;2024-01-30T02:50:00;27.30;;;7.20;;
18200;SDS011;9226;47.858;9.594;2024-01-30T02:52:25;20.83;;;7.20;;
18200;SDS011;9226;47.858;9.594;2024-01-30T02:54:51;15.13;;;6.87;;
18200;SDS011;9226;47.858;9.594;2024-01-30T02:57:16;39.63;;;7.40;;
18200;SDS011;9226;47.858;9.594;2024-01-30T02:59:42;15.50;;;6.60;;
18200;SDS011;9226;47.858;9.594;2024-01-30T03:02:07;13.40;;;6.53;;
18200;SDS011;9226;47.858;9.594;2024-01-30T03:04:32;14.17;;;6.33;;
18200;SDS011;9226;47.858;9.594;2024-01-30T03:06:58;13.13;;;6.53;;
18200;SDS011;9226;47.858;9.594;2024-01-30T03:09:23;12.13;;;6.37;;
18200;SDS011;9226;47.858;9.594;2024-01-30T03:11:49;17.57;;;7.70;;
18200;SDS011;9226;47.858;9.594;2024-01-30T03:14:14;15.10;;;6.97;;
18200;SDS011;9226;47.858;9.594;2024-01-30T03:16:40;14.20;;;6.73;;
18200;SDS011;9226;47.858;9.594;2024-01-30T03:19:06;13.17;;;6.50;;
18200;SDS011;9226;47.858;9.594;2024-01-30T03:21:34;15.87;;;7.00;;
18200;SDS011;9226;47.858;9.594;2024-01-30T03:24:00;24.83;;;7.13;;
18200;SDS011;9226;47.858;9.594;2024-01-30T03:26:25;82.63;;;7.83;;
18200;SDS011;9226;47.858;9.594;2024-01-30T03:28:50;97.53;;;9.50;;
18200;SDS011;9226;47.858;9.594;2024-01-30T03:31:16;27.80;;;7.33;;
18200;SDS011;9226;47.858;9.594;2024-01-30T03:33:42;12.03;;;6.17;;
18200;SDS011;9226;47.858;9.594;2024-01-30T03:36:08;29.87;;;7.63;;
18200;SDS011;9226;47.858;9.594;2024-01-30T03:38:34;33.33;;;8.10;;
18200;SDS011;9226;47.858;9.594;2024-01-30T03:41:00;48.73;;;7.50;;
18200;SDS011;9226;47.858;9.594;2024-01-30T03:43:26;23.77;;;7.43;;
18200;SDS011;9226;47.858;9.594;2024-01-30T03:45:51;26.03;;;7.77;;
18200;SDS011;9226;47.858;9.594;2024-01-30T03:48:17;18.57;;;6.80;;
18200;SDS011;9226;47.858;9.594;2024-01-30T03:50:42;21.17;;;6.97;;
18200;SDS011;9226;47.858;9.594;2024-01-30T03:53:07;20.77;;;7.47;;
18200;SDS011;9226;47.858;9.594;2024-01-30T03:55:33;74.53;;;9.47;;
18200;SDS011;9226;47.858;9.594;2024-01-30T03:57:58;131.00;;;11.93;;
18200;SDS011;9226;47.858;9.594;2024-01-30T04:00:24;142.17;;;12.33;;
18200;SDS011;9226;47.858;9.594;2024-01-30T04:02:49;651.70;;;39.27;;
18200;SDS011;9226;47.858;9.594;2024-01-30T04:05:16;664.40;;;50.40;;
18200;SDS011;9226;47.858;9.594;2024-01-30T04:07:41;665.13;;;36.60;;
18200;SDS011;9226;47.858;9.594;2024-01-30T04:10:07;382.13;;;25.77;;
18200;SDS011;9226;47.858;9.594;2024-01-30T04:12:35;146.67;;;13.97;;
18200;SDS011;9226;47.858;9.594;2024-01-30T04:15:01;274.90;;;19.30;;
18200;SDS011;9226;47.858;9.594;2024-01-30T04:17:27;141.20;;;11.70;;
18200;SDS011;9226;47.858;9.594;2024-01-30T04:19:54;15.40;;;6.67;;
18200;SDS011;9226;47.858;9.594;2024-01-30T04:22:19;18.93;;;7.10;;
18200;SDS011;9226;47.858;9.594;2024-01-30T04:24:45;42.07;;;8.70;;
18200;SDS011;9226;47.858;9.594;2024-01-30T04:27:10;220.70;;;15.00;;
18200;SDS011;9226;47.858;9.594;2024-01-30T04:29:35;308.73;;;21.03;;
18200;SDS011;9226;47.858;9.594;2024-01-30T04:32:01;114.37;;;12.63;;
18200;SDS011;9226;47.858;9.594;2024-01-30T04:34:27;156.33;;;12.63;;
18200;SDS011;9226;47.858;9.594;2024-01-30T04:36:52;219.33;;;14.50;;
18200;SDS011;9226;47.858;9.594;2024-01-30T04:39:17;118.63;;;10.47;;
18200;SDS011;9226;47.858;9.594;2024-01-30T04:41:43;12.67;;;5.33;;
18200;SDS011;9226;47.858;9.594;2024-01-30T04:44:08;15.37;;;6.23;;
18200;SDS011;9226;47.858;9.594;2024-01-30T04:46:34;13.90;;;5.83;;
18200;SDS011;9226;47.858;9.594;2024-01-30T04:48:59;12.80;;;5.90;;
18200;SDS011;9226;47.858;9.594;2024-01-30T04:51:25;13.87;;;6.40;;
18200;SDS011;9226;47.858;9.594;2024-01-30T04:53:50;13.03;;;6.20;;
18200;SDS011;9226;47.858;9.594;2024-01-30T04:56:16;9.93;;;5.27;;
18200;SDS011;9226;47.858;9.594;2024-01-30T04:58:41;15.83;;;5.90;;
18200;SDS011;9226;47.858;9.594;2024-01-30T05:01:07;40.67;;;7.43;;
18200;SDS011;9226;47.858;9.594;2024-01-30T05:03:33;19.83;;;8.70;;
18200;SDS011;9226;47.858;9.594;2024-01-30T05:05:59;58.73;;;17.60;;
18200;SDS011;9226;47.858;9.594;2024-01-30T05:08:25;73.70;;;23.73;;
18200;SDS011;9226;47.858;9.594;2024-01-30T05:10:50;107.30;;;34.67;;
18200;SDS011;9226;47.858;9.594;2024-01-30T05:13:16;48.13;;;17.43;;
18200;SDS011;9226;47.858;9.594;2024-01-30T05:15:42;30.77;;;12.23;;
18200;SDS011;9226;47.858;9.594;2024-01-30T05:18:07;47.20;;;14.40;;
18200;SDS011;9226;47.858;9.594;2024-01-30T05:20:32;30.30;;;11.87;;
18200;SDS011;9226;47.858;9.594;2024-01-30T05:22:58;30.57;;;11.57;;
18200;SDS011;9226;47.858;9.594;2024-01-30T05:25:23;15.47;;;7.00;;
18200;SDS011;9226;47.858;9.594;2024-01-30T05:27:49;43.27;;;7.23;;
18200;SDS011;9226;47.858;9.594;2024-01-30T05:30:15;17.50;;;7.70;;
18200;SDS011;9226;47.858;9.594;2024-01-30T05:32:40;17.10;;;7.23;;
18200;SDS011;9226;47.858;9.594;2024-01-30T05:35:06;16.37;;;6.30;;
18200;SDS011;9226;47.858;9.594;2024-01-30T05:37:33;14.97;;;6.33;;
18200;SDS011;9226;47.858;9.594;2024-01-30T05:39:58;17.40;;;7.07;;
18200;SDS011;9226;47.858;9.594;2024-01-30T05:42:24;18.17;;;7.17;;
18200;SDS011;9226;47.858;9.594;2024-01-30T05:44:50;16.23;;;7.03;;
18200;SDS011;9226;47.858;9.594;2024-01-30T05:47:15;12.90;;;6.17;;
18200;SDS011;9226;47.858;9.594;2024-01-30T05:49:41;15.07;;;6.53;;
18200;SDS011;9226;47.858;9.594;2024-01-30T05:52:07;14.40;;;6.77;;
18200;SDS011;9226;47.858;9.594;2024-01-30T05:54:32;18.03;;;6.60;;
18200;SDS011;9226;47.858;9.594;2024-01-30T05:56:57;13.30;;;5.90;;
18200;SDS011;9226;47.858;9.594;2024-01-30T05:59:23;13.13;;;5.73;;
18200;SDS011;9226;47.858;9.594;2024-01-30T06:01:48;10.13;;;5.17;;
18200;SDS011;9226;47.858;9.594;2024-01-30T06:04:14;44.37;;;7.43;;
18200;SDS011;9226;47.858;9.594;2024-01-30T06:06:40;13.60;;;6.43;;
18200;SDS011;9226;47.858;9.594;2024-01-30T06:09:05;14.33;;;5.77;;
18200;SDS011;9226;47.858;9.594;2024-01-30T06:11:33;15.30;;;6.20;;
18200;SDS011;9226;47.858;9.594;2024-01-30T06:13:58;14.10;;;5.83;;
18200;SDS011;9226;47.858;9.594;2024-01-30T06:16:24;15.77;;;8.07;;
18200;SDS011;9226;47.858;9.594;2024-01-30T06:18:49;10.73;;;5.47;;
18200;SDS011;9226;47.858;9.594;2024-01-30T06:21:15;12.90;;;6.43;;
18200;SDS011;9226;47.858;9.594;2024-01-30T06:23:40;11.73;;;5.83;;
18200;SDS011;9226;47.858;9.594;2024-01-30T06:26:08;12.17;;;6.00;;
18200;SDS011;9226;47.858;9.594;2024-01-30T06:28:34;13.87;;;6.17;;
18200;SDS011;9226;47.858;9.594;2024-01-30T06:31:00;14.10;;;6.30;;
18200;SDS011;9226;47.858;9.594;2024-01-30T06:33:26;14.50;;;6.40;;
18200;SDS011;9226;47.858;9.594;2024-01-30T06:35:52;13.73;;;5.67;;
18200;SDS011;9226;47.858;9.594;2024-01-30T06:38:17;15.20;;;6.07;;
18200;SDS011;9226;47.858;9.594;2024-01-30T06:40:42;13.73;;;6.27;;
18200;SDS011;9226;47.858;9.594;2024-01-30T06:43:08;16.77;;;7.13;;
18200;SDS011;9226;47.858;9.594;2024-01-30T06:45:33;15.13;;;6.70;;
18200;SDS011;9226;47.858;9.594;2024-01-30T06:47:59;14.40;;;6.13;;
18200;SDS011;9226;47.858;9.594;2024-01-30T06:50:25;20.53;;;6.43;;
18200;SDS011;9226;47.858;9.594;2024-01-30T06:52:52;158.80;;;14.40;;
18200;SDS011;9226;47.858;9.594;2024-01-30T06:55:18;95.73;;;11.90;;
18200;SDS011;9226;47.858;9.594;2024-01-30T06:57:43;14.73;;;7.50;;
18200;SDS011;9226;47.858;9.594;2024-01-30T07:00:09;14.73;;;6.70;;
18200;SDS011;9226;47.858;9.594;2024-01-30T07:02:35;11.13;;;5.43;;
18200;SDS011;9226;47.858;9.594;2024-01-30T07:05:00;17.70;;;6.97;;
18200;SDS011;9226;47.858;9.594;2024-01-30T07:07:25;121.23;;;10.53;;
18200;SDS011;9226;47.858;9.594;2024-01-30T07:09:51;31.73;;;8.07;;
18200;SDS011;9226;47.858;9.594;2024-01-30T07:12:21;37.20;;;6.77;;
18200;SDS011;9226;47.858;9.594;2024-01-30T07:14:52;12.80;;;6.53;;
18200;SDS011;9226;47.858;9.594;2024-01-30T07:17:18;16.03;;;6.43;;
18200;SDS011;9226;47.858;9.594;2024-01-30T07:19:43;12.23;;;5.83;;
18200;SDS011;9226;47.858;9.594;2024-01-30T07:22:09;15.03;;;6.63;;
18200;SDS011;9226;47.858;9.594;2024-01-30T07:24:34;14.23;;;6.60;;
18200;SDS011;9226;47.858;9.594;2024-01-30T07:27:00;10.90;;;6.03;;
18200;SDS011;9226;47.858;9.594;2024-01-30T07:29:25;12.20;;;6.73;;
18200;SDS011;9226;47.858;9.594;2024-01-30T07:31:51;13.93;;;6.40;;
18200;SDS011;9226;47.858;9.594;2024-01-30T07:34:16;13.20;;;6.57;;
18200;SDS011;9226;47.858;9.594;2024-01-30T07:36:42;13.20;;;5.77;;
18200;SDS011;9226;47.858;9.594;2024-01-30T07:39:07;11.20;;;5.43;;
18200;SDS011;9226;47.858;9.594;2024-01-30T07:41:33;11.50;;;6.23;;
18200;SDS011;9226;47.858;9.594;2024-01-30T07:43:58;12.37;;;5.80;;
18200;SDS011;9226;47.858;9.594;2024-01-30T07:46:24;10.43;;;5.90;;
18200;SDS011;9226;47.858;9.594;2024-01-30T07:48:49;11.20;;;6.20;;
18200;SDS011;9226;47.858;9.594;2024-01-30T07:51:15;10.43;;;6.10;;
18200;SDS011;9226;47.858;9.594;2024-01-30T07:53:41;12.03;;;6.40;;
18200;SDS011;9226;47.858;9.594;2024-01-30T07:56:07;11.17;;;5.83;;
18200;SDS011;9226;47.858;9.594;2024-01-30T07:58:32;11.87;;;6.47;;
18200;SDS011;9226;47.858;9.594;2024-01-30T08:00:57;11.27;;;6.00;;
18200;SDS011;9226;47.858;9.594;2024-01-30T08:03:23;10.27;;;5.70;;
18200;SDS011;9226;47.858;9.594;2024-01-30T08:05:49;11.40;;;6.13;;
18200;SDS011;9226;47.858;9.594;2024-01-30T08:08:14;14.53;;;6.73;;
18200;SDS011;9226;47.858;9.594;2024-01-30T08:10:40;13.77;;;7.17;;
18200;SDS011;9226;47.858;9.594;2024-01-30T08:13:05;11.60;;;6.40;;
18200;SDS011;9226;47.858;9.594;2024-01-30T08:15:31;12.67;;;6.83;;
18200;SDS011;9226;47.858;9.594;2024-01-30T08:17:56;14.30;;;7.30;;
18200;SDS011;9226;47.858;9.594;2024-01-30T08:20:24;11.73;;;6.37;;
18200;SDS011;9226;47.858;9.594;2024-01-30T08:22:50;11.47;;;6.33;;
18200;SDS011;9226;47.858;9.594;2024-01-30T08:25:15;11.20;;;6.33;;
18200;SDS011;9226;47.858;9.594;2024-01-30T08:27:41;12.37;;;5.97;;
18200;SDS011;9226;47.858;9.594;2024-01-30T08:30:06;11.23;;;6.30;;
18200;SDS011;9226;47.858;9.594;2024-01-30T08:32:32;11.30;;;6.57;;
18200;SDS011;9226;47.858;9.594;2024-01-30T08:34:58;9.53;;;5.67;;
18200;SDS011;9226;47.858;9.594;2024-01-30T08:37:28;10.63;;;5.93;;
18200;SDS011;9226;47.858;9.594;2024-01-30T08:39:54;11.27;;;5.80;;
18200;SDS011;9226;47.858;9.594;2024-01-30T08:42:20;12.67;;;6.17;;
18200;SDS011;9226;47.858;9.594;2024-01-30T08:44:47;15.70;;;6.10;;
18200;SDS011;9226;47.858;9.594;2024-01-30T08:47:18;10.57;;;5.80;;
18200;SDS011;9226;47.858;9.594;2024-01-30T08:49:44;25.67;;;7.23;;
18200;SDS011;9226;47.858;9.594;2024-01-30T08:52:12;20.13;;;7.50;;
18200;SDS011;9226;47.858;9.594;2024-01-30T08:54:38;111.57;;;10.47;;
18200;SDS011;9226;47.858;9.594;2024-01-30T08:57:03;38.67;;;8.43;;
18200;SDS011;9226;47.858;9.594;2024-01-30T08:59:29;159.43;;;12.43;;
18200;SDS011;9226;47.858;9.594;2024-01-30T09:01:54;27.00;;;8.00;;
18200;SDS011;9226;47.858;9.594;2024-01-30T09:04:23;15.33;;;7.67;;
18200;SDS011;9226;47.858;9.594;2024-01-30T09:06:48;15.63;;;7.73;;
18200;SDS011;9226;47.858;9.594;2024-01-30T09:09:14;17.17;;;8.87;;
18200;SDS011;9226;47.858;9.594;2024-01-30T09:11:39;23.03;;;8.73;;
18200;SDS011;9226;47.858;9.594;2024-01-30T09:14:05;19.67;;;8.63;;
18200;SDS011;9226;47.858;9.594;2024-01-30T09:16:30;20.03;;;9.03;;
18200;SDS011;9226;47.858;9.594;2024-01-30T09:18:56;19.67;;;9.87;;
18200;SDS011;9226;47.858;9.594;2024-01-30T09:21:21;17.47;;;8.53;;
18200;SDS011;9226;47.858;9.594;2024-01-30T09:23:47;15.87;;;8.17;;
18200;SDS011;9226;47.858;9.594;2024-01-30T09:26:12;13.67;;;7.30;;
18200;SDS011;9226;47.858;9.594;2024-01-30T09:28:38;15.87;;;7.27;;
18200;SDS011;9226;47.858;9.594;2024-01-30T09:31:03;14.07;;;7.23;;
18200;SDS011;9226;47.858;9.594;2024-01-30T09:33:29;14.13;;;6.90;;
18200;SDS011;9226;47.858;9.594;2024-01-30T09:35:54;14.47;;;7.30;;
18200;SDS011;9226;47.858;9.594;2024-01-30T09:38:19;14.23;;;7.33;;
18200;SDS011;9226;47.858;9.594;2024-01-30T09:40:45;15.23;;;7.20;;
18200;SDS011;9226;47.858;9.594;2024-01-30T09:43:18;47.63;;;9.27;;
18200;SDS011;9226;47.858;9.594;2024-01-30T09:45:48;18.33;;;8.43;;
18200;SDS011;9226;47.858;9.594;2024-01-30T09:48:15;219.77;;;14.20;;
18200;SDS011;9226;47.858;9.594;2024-01-30T09:50:40;40.80;;;8.80;;
18200;SDS011;9226;47.858;9.594;2024-01-30T09:53:06;42.23;;;9.13;;
18200;SDS011;9226;47.858;9.594;2024-01-30T09:55:34;187.00;;;13.60;;
18200;SDS011;9226;47.858;9.594;2024-01-30T09:58:00;32.57;;;9.10;;
18200;SDS011;9226;47.858;9.594;2024-01-30T10:00:26;36.97;;;9.07;;
18200;SDS011;9226;47.858;9.594;2024-01-30T10:02:52;100.33;;;10.73;;
18200;SDS011;9226;47.858;9.594;2024-01-30T10:05:18;32.03;;;8.77;;
18200;SDS011;9226;47.858;9.594;2024-01-30T10:07:53;110.23;;;12.10;;
18200;SDS011;9226;47.858;9.594;2024-01-30T10:10:21;26.03;;;8.63;;
18200;SDS011;9226;47.858;9.594;2024-01-30T10:12:48;64.27;;;9.53;;
18200;SDS011;9226;47.858;9.594;2024-01-30T10:15:13;61.53;;;9.37;;
18200;SDS011;9226;47.858;9.594;2024-01-30T10:17:39;222.40;;;14.50;;
18200;SDS011;9226;47.858;9.594;2024-01-30T10:20:05;86.27;;;10.57;;
18200;SDS011;9226;47.858;9.594;2024-01-30T10:22:30;50.30;;;9.23;;
18200;SDS011;9226;47.858;9.594;2024-01-30T10:24:56;19.67;;;8.20;;
18200;SDS011;9226;47.858;9.594;2024-01-30T10:27:27;16.07;;;8.27;;
18200;SDS011;9226;47.858;9.594;2024-01-30T10:29:54;16.53;;;7.93;;
18200;SDS011;9226;47.858;9.594;2024-01-30T10:32:20;14.23;;;7.10;;
18200;SDS011;9226;47.858;9.594;2024-01-30T10:34:46;13.53;;;7.10;;
18200;SDS011;9226;47.858;9.594;2024-01-30T10:37:12;15.67;;;7.30;;
18200;SDS011;9226;47.858;9.594;2024-01-30T10:39:40;15.33;;;7.17;;
18200;SDS011;9226;47.858;9.594;2024-01-30T10:42:10;14.33;;;7.23;;
18200;SDS011;9226;47.858;9.594;2024-01-30T10:47:26;14.57;;;7.57;;
18200;SDS011;9226;47.858;9.594;2024-01-30T10:49:54;24.30;;;7.83;;
18200;SDS011;9226;47.858;9.594;2024-01-30T10:52:20;14.27;;;7.43;;
18200;SDS011;9226;47.858;9.594;2024-01-30T10:54:45;11.73;;;6.63;;
18200;SDS011;9226;47.858;9.594;2024-01-30T10:57:12;10.73;;;6.60;;
18200;SDS011;9226;47.858;9.594;2024-01-30T10:59:39;11.30;;;6.80;;
18200;SDS011;9226;47.858;9.594;2024-01-30T11:02:06;10.67;;;5.90;;
18200;SDS011;9226;47.858;9.594;2024-01-30T11:04:37;14.37;;;7.30;;
18200;SDS011;9226;47.858;9.594;2024-01-30T11:07:16;13.43;;;7.33;;
18200;SDS011;9226;47.858;9.594;2024-01-30T11:12:26;17.33;;;7.80;;
18200;SDS011;9226;47.858;9.594;2024-01-30T11:15:02;15.33;;;8.13;;
18200;SDS011;9226;47.858;9.594;2024-01-30T11:20:30;17.10;;;8.33;;
18200;SDS011;9226;47.858;9.594;2024-01-30T11:22:56;16.73;;;8.63;;
18200;SDS011;9226;47.858;9.594;2024-01-30T11:25:23;16.83;;;7.53;;
18200;SDS011;9226;47.858;9.594;2024-01-30T11:27:50;13.50;;;7.27;;
18200;SDS011;9226;47.858;9.594;2024-01-30T11:30:26;17.73;;;8.40;;
18200;SDS011;9226;47.858;9.594;2024-01-30T11:35:40;15.60;;;7.87;;
18200;SDS011;9226;47.858;9.594;2024-01-30T11:38:15;30.27;;;9.03;;
18200;SDS011;9226;47.858;9.594;2024-01-30T11:40:41;17.07;;;8.67;;
18200;SDS011;9226;47.858;9.594;2024-01-30T11:43:07;16.50;;;8.70;;
18200;SDS011;9226;47.858;9.594;2024-01-30T11:45:34;14.63;;;8.60;;
18200;SDS011;9226;47.858;9.594;2024-01-30T11:48:00;16.27;;;8.97;;
18200;SDS011;9226;47.858;9.594;2024-01-30T11:50:28;14.97;;;7.83;;
18200;SDS011;9226;47.858;9.594;2024-01-30T11:52:54;16.23;;;7.93;;
18200;SDS011;9226;47.858;9.594;2024-01-30T11:55:20;13.83;;;7.60;;
18200;SDS011;9226;47.858;9.594;2024-01-30T11:57:45;14.77;;;7.13;;
18200;SDS011;9226;47.858;9.594;2024-01-30T12:00:14;12.70;;;7.43;;
18200;SDS011;9226;47.858;9.594;2024-01-30T12:02:42;16.47;;;7.80;;
18200;SDS011;9226;47.858;9.594;2024-01-30T12:05:08;16.87;;;8.23;;
18200;SDS011;9226;47.858;9.594;2024-01-30T12:07:34;14.90;;;7.63;;
18200;SDS011;9226;47.858;9.594;2024-01-30T12:09:59;17.23;;;7.80;;
18200;SDS011;9226;47.858;9.594;2024-01-30T12:12:25;19.77;;;7.90;;
18200;SDS011;9226;47.858;9.594;2024-01-30T12:14:52;16.17;;;8.37;;
18200;SDS011;9226;47.858;9.594;2024-01-30T12:17:30;16.00;;;7.80;;
18200;SDS011;9226;47.858;9.594;2024-01-30T12:20:04;23.63;;;9.23;;
18200;SDS011;9226;47.858;9.594;2024-01-30T12:22:36;16.80;;;8.97;;
18200;SDS011;9226;47.858;9.594;2024-01-30T12:25:07;21.73;;;8.40;;
18200;SDS011;9226;47.858;9.594;2024-01-30T12:27:34;17.93;;;7.80;;
18200;SDS011;9226;47.858;9.594;2024-01-30T12:29:59;14.30;;;8.00;;
18200;SDS011;9226;47.858;9.594;2024-01-30T12:32:25;36.07;;;13.17;;
18200;SDS011;9226;47.858;9.594;2024-01-30T12:34:50;37.37;;;13.33;;
18200;SDS011;9226;47.858;9.594;2024-01-30T12:37:19;20.83;;;10.10;;
18200;SDS011;9226;47.858;9.594;2024-01-30T12:39:47;17.03;;;8.97;;
18200;SDS011;9226;47.858;9.594;2024-01-30T12:42:13;18.83;;;9.37;;
18200;SDS011;9226;47.858;9.594;2024-01-30T12:44:39;17.57;;;8.53;;
18200;SDS011;9226;47.858;9.594;2024-01-30T12:47:08;16.17;;;8.83;;
18200;SDS011;9226;47.858;9.594;2024-01-30T12:49:34;15.00;;;8.20;;
18200;SDS011;9226;47.858;9.594;2024-01-30T12:51:59;16.10;;;8.60;;
18200;SDS011;9226;47.858;9.594;2024-01-30T12:54:25;19.77;;;8.97;;
18200;SDS011;9226;47.858;9.594;2024-01-30T12:56:50;25.43;;;10.87;;
18200;SDS011;9226;47.858;9.594;2024-01-30T12:59:16;18.43;;;9.30;;
18200;SDS011;9226;47.858;9.594;2024-01-30T13:01:41;17.30;;;8.90;;
18200;SDS011;9226;47.858;9.594;2024-01-30T13:04:07;17.63;;;8.77;;
18200;SDS011;9226;47.858;9.594;2024-01-30T13:06:32;16.80;;;8.70;;
18200;SDS011;9226;47.858;9.594;2024-01-30T13:08:58;18.57;;;9.23;;
18200;SDS011;9226;47.858;9.594;2024-01-30T13:11:23;23.23;;;8.63;;
18200;SDS011;9226;47.858;9.594;2024-01-30T13:13:50;17.77;;;9.57;;
18200;SDS011;9226;47.858;9.594;2024-01-30T13:16:16;17.10;;;8.93;;
18200;SDS011;9226;47.858;9.594;2024-01-30T13:18:41;19.47;;;9.87;;
18200;SDS011;9226;47.858;9.594;2024-01-30T13:21:07;18.87;;;8.77;;
18200;SDS011;9226;47.858;9.594;2024-01-30T13:23:32;20.23;;;9.23;;
18200;SDS011;9226;47.858;9.594;2024-01-30T13:25:58;17.00;;;8.87;;
18200;SDS011;9226;47.858;9.594;2024-01-30T13:28:23;24.40;;;11.10;;
18200;SDS011;9226;47.858;9.594;2024-01-30T13:30:50;19.13;;;9.57;;
18200;SDS011;9226;47.858;9.594;2024-01-30T13:33:16;20.77;;;9.17;;
18200;SDS011;9226;47.858;9.594;2024-01-30T13:35:41;16.80;;;8.93;;
18200;SDS011;9226;47.858;9.594;2024-01-30T13:38:07;17.23;;;9.10;;
18200;SDS011;9226;47.858;9.594;2024-01-30T13:40:33;20.30;;;9.77;;
18200;SDS011;9226;47.858;9.594;2024-01-30T13:42:58;17.93;;;9.03;;
18200;SDS011;9226;47.858;9.594;2024-01-30T13:45:24;17.17;;;8.83;;
18200;SDS011;9226;47.858;9.594;2024-01-30T13:47:49;16.53;;;8.57;;
18200;SDS011;9226;47.858;9.594;2024-01-30T13:50:14;19.37;;;9.87;;
18200;SDS011;9226;47.858;9.594;2024-01-30T13:52:41;21.63;;;9.57;;
18200;SDS011;9226;47.858;9.594;2024-01-30T13:55:10;19.37;;;9.37;;
18200;SDS011;9226;47.858;9.594;2024-01-30T13:57:36;21.33;;;9.40;;
18200;SDS011;9226;47.858;9.594;2024-01-30T14:00:02;20.57;;;9.50;;
18200;SDS011;9226;47.858;9.594;2024-01-30T14:02:31;22.30;;;9.27;;
18200;SDS011;9226;47.858;9.594;2024-01-30T14:04:57;17.80;;;8.90;;
18200;SDS011;9226;47.858;9.594;2024-01-30T14:07:22;20.63;;;9.17;;
18200;SDS011;9226;47.858;9.594;2024-01-30T14:09:48;19.50;;;9.17;;
18200;SDS011;9226;47.858;9.594;2024-01-30T14:12:14;19.53;;;8.13;;
18200;SDS011;9226;47.858;9.594;2024-01-30T14:14:40;18.37;;;8.80;;
18200;SDS011;9226;47.858;9.594;2024-01-30T14:17:06;16.87;;;8.50;;
18200;SDS011;9226;47.858;9.594;2024-01-30T14:19:33;21.93;;;9.73;;
18200;SDS011;9226;47.858;9.594;2024-01-30T14:22:00;16.67;;;8.60;;
18200;SDS011;9226;47.858;9.594;2024-01-30T14:24:27;19.40;;;9.40;;
18200;SDS011;9226;47.858;9.594;2024-01-30T14:26:52;17.57;;;8.53;;
18200;SDS011;9226;47.858;9.594;2024-01-30T14:29:18;19.57;;;8.40;;
18200;SDS011;9226;47.858;9.594;2024-01-30T14:31:44;17.30;;;8.63;;
18200;SDS011;9226;47.858;9.594;2024-01-30T14:34:10;15.97;;;8.37;;
18200;SDS011;9226;47.858;9.594;2024-01-30T14:36:36;15.87;;;9.00;;
18200;SDS011;9226;47.858;9.594;2024-01-30T14:39:03;22.17;;;8.90;;
18200;SDS011;9226;47.858;9.594;2024-01-30T14:41:29;24.80;;;9.47;;
18200;SDS011;9226;47.858;9.594;2024-01-30T14:43:55;18.83;;;8.80;;
18200;SDS011;9226;47.858;9.594;2024-01-30T14:46:21;18.60;;;8.77;;
18200;SDS011;9226;47.858;9.594;2024-01-30T14:48:47;19.83;;;9.07;;